createdAt,value
2023-06-24T00:00:50.848Z,596.00
2023-06-24T00:01:50.938Z,594.00
2023-06-24T00:02:50.967Z,592.00
2023-06-24T00:03:51.049Z,592.00
2023-06-24T00:04:51.064Z,591.00
2023-06-24T00:05:51.128Z,590.00
2023-06-24T00:06:51.184Z,589.00
2023-06-24T00:07:51.252Z,591.00
2023-06-24T00:08:51.302Z,589.00
2023-06-24T00:09:51.361Z,591.00
2023-06-24T00:10:51.414Z,591.00
2023-06-24T00:11:51.463Z,591.00
2023-06-24T00:12:51.505Z,594.00
2023-06-24T00:13:52.185Z,594.00
2023-06-24T00:14:51.550Z,592.00
2023-06-24T00:15:51.565Z,593.00
2023-06-24T00:16:51.568Z,590.00
2023-06-24T00:17:51.631Z,590.00
2023-06-24T00:18:51.592Z,588.00
2023-06-24T00:19:51.642Z,588.00
2023-06-24T00:20:51.699Z,587.00
2023-06-24T00:21:51.637Z,588.00
2023-06-24T00:22:51.649Z,588.00
2023-06-24T00:23:51.654Z,586.00
2023-06-24T00:24:51.668Z,586.00
2023-06-24T00:25:51.679Z,586.00
2023-06-24T00:26:51.680Z,584.00
2023-06-24T00:27:51.683Z,586.00
2023-06-24T00:28:51.732Z,589.00
2023-06-24T00:29:51.683Z,587.00
2023-06-24T00:30:51.687Z,591.00
2023-06-24T00:31:52.097Z,591.00
2023-06-24T00:32:51.829Z,591.00
2023-06-24T00:33:51.712Z,591.00
2023-06-24T00:34:51.877Z,588.00
2023-06-24T00:35:51.733Z,587.00
2023-06-24T00:36:51.721Z,587.00
2023-06-24T00:37:51.730Z,586.00
2023-06-24T00:38:51.735Z,586.00
2023-06-24T00:39:51.734Z,587.00
2023-06-24T00:40:51.743Z,586.00
2023-06-24T00:41:51.758Z,586.00
2023-06-24T00:42:51.760Z,582.00
2023-06-24T00:43:51.793Z,581.00
2023-06-24T00:44:52.721Z,583.00
2023-06-24T00:45:52.183Z,582.00
2023-06-24T00:46:51.768Z,579.00
2023-06-24T00:47:51.846Z,579.00
2023-06-24T00:48:51.793Z,580.00
2023-06-24T00:49:51.785Z,578.00
2023-06-24T00:50:51.784Z,578.00
2023-06-24T00:51:51.912Z,576.00
2023-06-24T00:52:51.780Z,576.00
2023-06-24T00:53:51.793Z,576.00
2023-06-24T00:54:51.796Z,577.00
2023-06-24T00:55:51.788Z,579.00
2023-06-24T00:56:51.799Z,578.00
2023-06-24T00:57:51.778Z,577.00
2023-06-24T00:58:51.858Z,577.00
2023-06-24T00:59:51.774Z,576.00
2023-06-24T01:00:51.815Z,574.00
2023-06-24T01:01:51.876Z,575.00
2023-06-24T01:02:51.876Z,575.00
2023-06-24T01:03:51.810Z,575.00
2023-06-24T01:04:51.791Z,574.00
2023-06-24T01:05:52.689Z,574.00
2023-06-24T01:06:51.815Z,572.00
2023-06-24T01:07:51.788Z,571.00
2023-06-24T01:08:51.823Z,572.00
2023-06-24T01:09:52.690Z,572.00
2023-06-24T01:10:51.835Z,570.00
2023-06-24T01:11:51.820Z,573.00
2023-06-24T01:12:51.827Z,573.00
2023-06-24T01:13:51.830Z,573.00
2023-06-24T01:14:51.821Z,570.00
2023-06-24T01:15:51.861Z,574.00
2023-06-24T01:16:51.858Z,575.00
2023-06-24T01:17:51.867Z,574.00
2023-06-24T01:18:51.842Z,572.00
2023-06-24T01:19:51.870Z,572.00
2023-06-24T01:20:51.859Z,572.00
2023-06-24T01:21:51.859Z,573.00
2023-06-24T01:22:51.870Z,571.00
2023-06-24T01:23:52.717Z,571.00
2023-06-24T01:24:51.871Z,572.00
2023-06-24T01:25:51.897Z,571.00
2023-06-24T01:26:51.892Z,569.00
2023-06-24T01:27:54.696Z,568.00
2023-06-24T01:28:51.888Z,567.00
2023-06-24T01:29:51.872Z,571.00
2023-06-24T01:30:51.874Z,574.00
2023-06-24T01:31:51.873Z,572.00
2023-06-24T01:32:52.763Z,569.00
2023-06-24T01:33:51.926Z,568.00
2023-06-24T01:34:52.703Z,564.00
2023-06-24T01:35:52.716Z,562.00
2023-06-24T01:36:51.832Z,559.00
2023-06-24T01:37:51.816Z,559.00
2023-06-24T01:38:51.808Z,562.00
2023-06-24T01:39:51.812Z,563.00
2023-06-24T01:40:51.799Z,564.00
2023-06-24T01:41:51.792Z,566.00
2023-06-24T01:42:51.795Z,565.00
2023-06-24T01:43:51.766Z,566.00
2023-06-24T01:44:54.704Z,567.00
2023-06-24T01:45:52.226Z,568.00
2023-06-24T01:46:51.786Z,568.00
2023-06-24T01:47:51.764Z,567.00
2023-06-24T01:48:51.759Z,564.00
2023-06-24T01:49:51.731Z,562.00
2023-06-24T01:50:51.724Z,565.00
2023-06-24T01:51:51.733Z,564.00
2023-06-24T01:52:51.708Z,563.00
2023-06-24T01:53:51.696Z,565.00
2023-06-24T01:54:51.688Z,565.00
2023-06-24T01:55:51.678Z,566.00
2023-06-24T01:56:51.693Z,565.00
2023-06-24T01:57:51.673Z,567.00
2023-06-24T01:58:51.667Z,565.00
2023-06-24T01:59:51.648Z,566.00
2023-06-24T02:00:51.697Z,565.00
2023-06-24T02:01:51.713Z,563.00
2023-06-24T02:02:51.770Z,561.00
2023-06-24T02:03:51.622Z,559.00
2023-06-24T02:04:51.643Z,554.00
2023-06-24T02:05:51.605Z,554.00
2023-06-24T02:06:58.264Z,552.00
2023-06-24T02:07:54.210Z,552.00
2023-06-24T02:08:51.609Z,553.00
2023-06-24T02:09:51.590Z,552.00
2023-06-24T02:10:51.589Z,553.00
2023-06-24T02:11:51.578Z,554.00
2023-06-24T02:12:51.561Z,555.00
2023-06-24T02:13:51.745Z,554.00
2023-06-24T02:14:51.566Z,551.00
2023-06-24T02:15:51.580Z,549.00
2023-06-24T02:16:51.546Z,552.00
2023-06-24T02:17:51.531Z,551.00
2023-06-24T02:18:51.515Z,550.00
2023-06-24T02:19:51.512Z,552.00
2023-06-24T02:20:51.531Z,550.00
2023-06-24T02:21:51.500Z,548.00
2023-06-24T02:22:51.493Z,546.00
2023-06-24T02:23:51.484Z,543.00
2023-06-24T02:24:51.489Z,542.00
2023-06-24T02:25:51.472Z,542.00
2023-06-24T02:26:51.465Z,543.00
2023-06-24T02:27:58.223Z,541.00
2023-06-24T02:28:51.447Z,544.00
2023-06-24T02:29:51.438Z,543.00
2023-06-24T02:30:51.471Z,543.00
2023-06-24T02:31:51.424Z,543.00
2023-06-24T02:32:58.399Z,543.00
2023-06-24T02:33:52.235Z,545.00
2023-06-24T02:34:51.406Z,547.00
2023-06-24T02:35:51.399Z,547.00
2023-06-24T02:36:51.413Z,549.00
2023-06-24T02:37:51.374Z,550.00
2023-06-24T02:38:51.362Z,550.00
2023-06-24T02:39:54.227Z,548.00
2023-06-24T02:40:51.353Z,547.00
2023-06-24T02:41:51.347Z,544.00
2023-06-24T02:42:51.331Z,544.00
2023-06-24T02:43:51.323Z,545.00
2023-06-24T02:44:51.318Z,546.00
2023-06-24T02:45:58.230Z,544.00
2023-06-24T02:46:51.364Z,543.00
2023-06-24T02:47:51.418Z,544.00
2023-06-24T02:48:51.282Z,545.00
2023-06-24T02:49:51.274Z,543.00
2023-06-24T02:50:51.277Z,541.00
2023-06-24T02:51:51.272Z,540.00
2023-06-24T02:52:51.283Z,542.00
2023-06-24T02:53:51.248Z,541.00
2023-06-24T02:54:51.249Z,542.00
2023-06-24T02:55:51.240Z,543.00
2023-06-24T02:56:51.231Z,542.00
2023-06-24T02:57:51.213Z,541.00
2023-06-24T02:58:51.221Z,539.00
2023-06-24T02:59:51.203Z,539.00
2023-06-24T03:00:51.216Z,537.00
2023-06-24T03:01:51.262Z,536.00
2023-06-24T03:02:51.287Z,539.00
2023-06-24T03:03:51.264Z,540.00
2023-06-24T03:04:51.179Z,540.00
2023-06-24T03:05:51.166Z,538.00
2023-06-24T03:06:51.272Z,539.00
2023-06-24T03:07:51.156Z,539.00
2023-06-24T03:08:51.192Z,537.00
2023-06-24T03:09:51.149Z,540.00
2023-06-24T03:10:51.137Z,541.00
2023-06-24T03:11:51.131Z,541.00
2023-06-24T03:12:51.113Z,539.00
2023-06-24T03:13:51.118Z,538.00
2023-06-24T03:14:51.101Z,541.00
2023-06-24T03:15:51.101Z,540.00
2023-06-24T03:16:51.088Z,540.00
2023-06-24T03:17:51.099Z,539.00
2023-06-24T03:18:51.078Z,541.00
2023-06-24T03:19:51.070Z,538.00
2023-06-24T03:20:51.061Z,537.00
2023-06-24T03:21:51.053Z,538.00
2023-06-24T03:22:51.753Z,539.00
2023-06-24T03:23:51.059Z,538.00
2023-06-24T03:24:51.063Z,539.00
2023-06-24T03:25:51.028Z,540.00
2023-06-24T03:26:51.024Z,538.00
2023-06-24T03:27:51.012Z,538.00
2023-06-24T03:28:50.998Z,535.00
2023-06-24T03:29:50.996Z,534.00
2023-06-24T03:30:50.984Z,535.00
2023-06-24T03:31:51.845Z,535.00
2023-06-24T03:32:51.017Z,533.00
2023-06-24T03:33:50.980Z,535.00
2023-06-24T03:34:51.751Z,531.00
2023-06-24T03:35:50.952Z,532.00
2023-06-24T03:36:50.943Z,533.00
2023-06-24T03:37:50.934Z,536.00
2023-06-24T03:38:50.939Z,537.00
2023-06-24T03:39:50.922Z,538.00
2023-06-24T03:40:50.939Z,535.00
2023-06-24T03:41:50.930Z,536.00
2023-06-24T03:42:50.927Z,540.00
2023-06-24T03:43:50.930Z,541.00
2023-06-24T03:44:50.954Z,539.00
2023-06-24T03:45:50.998Z,536.00
2023-06-24T03:46:50.945Z,536.00
2023-06-24T03:47:50.997Z,536.00
2023-06-24T03:48:50.951Z,537.00
2023-06-24T03:49:50.951Z,538.00
2023-06-24T03:50:50.965Z,537.00
2023-06-24T03:51:50.956Z,536.00
2023-06-24T03:52:50.949Z,535.00
2023-06-24T03:53:51.757Z,535.00
2023-06-24T03:54:50.960Z,536.00
2023-06-24T03:55:50.949Z,538.00
2023-06-24T03:56:50.983Z,539.00
2023-06-24T03:57:50.955Z,539.00
2023-06-24T03:58:50.948Z,544.00
2023-06-24T03:59:50.956Z,547.00
2023-06-24T04:00:50.974Z,547.00
2023-06-24T04:01:51.115Z,549.00
2023-06-24T04:02:51.009Z,548.00
2023-06-24T04:03:50.987Z,548.00
2023-06-24T04:04:50.948Z,544.00
2023-06-24T04:05:50.948Z,545.00
2023-06-24T04:06:50.971Z,546.00
2023-06-24T04:07:50.963Z,546.00
2023-06-24T04:08:50.961Z,543.00
2023-06-24T04:09:50.956Z,542.00
2023-06-24T04:10:50.959Z,539.00
2023-06-24T04:11:50.962Z,540.00
2023-06-24T04:12:50.983Z,536.00
2023-06-24T04:13:50.964Z,536.00
2023-06-24T04:14:50.962Z,535.00
2023-06-24T04:15:50.976Z,533.00
2023-06-24T04:16:50.969Z,535.00
2023-06-24T04:17:50.987Z,535.00
2023-06-24T04:18:50.965Z,538.00
2023-06-24T04:19:51.767Z,537.00
2023-06-24T04:20:50.961Z,535.00
2023-06-24T04:21:50.964Z,534.00
2023-06-24T04:22:50.962Z,536.00
2023-06-24T04:23:50.963Z,535.00
2023-06-24T04:24:51.028Z,535.00
2023-06-24T04:25:50.957Z,534.00
2023-06-24T04:26:50.977Z,533.00
2023-06-24T04:27:50.971Z,535.00
2023-06-24T04:28:50.998Z,535.00
2023-06-24T04:29:50.998Z,533.00
2023-06-24T04:30:50.991Z,533.00
2023-06-24T04:31:50.974Z,529.00
2023-06-24T04:32:51.074Z,527.00
2023-06-24T04:33:50.979Z,528.00
2023-06-24T04:34:51.001Z,529.00
2023-06-24T04:35:50.994Z,529.00
2023-06-24T04:36:51.000Z,527.00
2023-06-24T04:37:50.980Z,528.00
2023-06-24T04:38:50.985Z,529.00
2023-06-24T04:39:50.989Z,529.00
2023-06-24T04:40:51.769Z,528.00
2023-06-24T04:41:50.992Z,530.00
2023-06-24T04:42:50.989Z,531.00
2023-06-24T04:43:50.991Z,531.00
2023-06-24T04:44:51.024Z,530.00
2023-06-24T04:45:50.990Z,530.00
2023-06-24T04:46:51.003Z,528.00
2023-06-24T04:47:51.012Z,528.00
2023-06-24T04:48:51.006Z,527.00
2023-06-24T04:49:51.009Z,528.00
2023-06-24T04:50:51.003Z,528.00
2023-06-24T04:51:51.005Z,526.00
2023-06-24T04:52:50.994Z,527.00
2023-06-24T04:53:50.998Z,528.00
2023-06-24T04:54:51.020Z,527.00
2023-06-24T04:55:51.017Z,529.00
2023-06-24T04:56:51.016Z,527.00
2023-06-24T04:57:51.019Z,528.00
2023-06-24T04:58:51.015Z,528.00
2023-06-24T04:59:51.018Z,529.00
2023-06-24T05:00:51.134Z,529.00
2023-06-24T05:01:51.004Z,526.00
2023-06-24T05:02:51.057Z,525.00
2023-06-24T05:03:51.011Z,527.00
2023-06-24T05:04:51.093Z,527.00
2023-06-24T05:05:51.025Z,526.00
2023-06-24T05:06:51.175Z,527.00
2023-06-24T05:07:51.216Z,527.00
2023-06-24T05:08:51.014Z,526.00
2023-06-24T05:09:51.006Z,523.00
2023-06-24T05:10:51.009Z,523.00
2023-06-24T05:11:51.016Z,522.00
2023-06-24T05:12:51.042Z,523.00
2023-06-24T05:13:51.297Z,523.00
2023-06-24T05:14:51.076Z,522.00
2023-06-24T05:15:51.029Z,520.00
2023-06-24T05:16:51.070Z,518.00
2023-06-24T05:17:53.623Z,517.00
2023-06-24T05:18:51.027Z,514.00
2023-06-24T05:19:51.019Z,514.00
2023-06-24T05:20:51.010Z,514.00
2023-06-24T05:21:51.009Z,516.00
2023-06-24T05:22:50.993Z,517.00
2023-06-24T05:23:50.991Z,516.00
2023-06-24T05:24:50.984Z,517.00
2023-06-24T05:25:51.001Z,517.00
2023-06-24T05:26:50.982Z,517.00
2023-06-24T05:27:50.966Z,518.00
2023-06-24T05:28:50.977Z,519.00
2023-06-24T05:29:50.954Z,521.00
2023-06-24T05:30:50.939Z,521.00
2023-06-24T05:31:50.932Z,519.00
2023-06-24T05:32:51.060Z,518.00
2023-06-24T05:33:50.919Z,515.00
2023-06-24T05:34:50.914Z,515.00
2023-06-24T05:35:50.904Z,515.00
2023-06-24T05:36:50.904Z,516.00
2023-06-24T05:37:50.900Z,517.00
2023-06-24T05:38:50.883Z,519.00
2023-06-24T05:39:50.878Z,520.00
2023-06-24T05:40:50.873Z,521.00
2023-06-24T05:41:50.863Z,521.00
2023-06-24T05:42:50.864Z,521.00
2023-06-24T05:43:50.862Z,519.00
2023-06-24T05:44:50.845Z,516.00
2023-06-24T05:45:50.877Z,516.00
2023-06-24T05:46:50.823Z,516.00
2023-06-24T05:47:50.902Z,518.00
2023-06-24T05:48:50.848Z,518.00
2023-06-24T05:49:50.809Z,517.00
2023-06-24T05:50:50.793Z,516.00
2023-06-24T05:51:50.801Z,517.00
2023-06-24T05:52:50.778Z,517.00
2023-06-24T05:53:50.767Z,516.00
2023-06-24T05:54:50.795Z,518.00
2023-06-24T05:55:50.780Z,518.00
2023-06-24T05:56:50.764Z,518.00
2023-06-24T05:57:50.778Z,517.00
2023-06-24T05:58:50.748Z,515.00
2023-06-24T05:59:50.719Z,515.00
2023-06-24T06:00:50.712Z,514.00
2023-06-24T06:01:50.737Z,516.00
2023-06-24T06:02:50.861Z,517.00
2023-06-24T06:03:50.736Z,514.00
2023-06-24T06:04:50.708Z,512.00
2023-06-24T06:05:50.673Z,512.00
2023-06-24T06:06:50.716Z,513.00
2023-06-24T06:07:50.663Z,514.00
2023-06-24T06:08:50.666Z,513.00
2023-06-24T06:09:50.647Z,513.00
2023-06-24T06:10:52.896Z,510.00
2023-06-24T06:11:50.634Z,508.00
2023-06-24T06:12:50.629Z,510.00
2023-06-24T06:13:50.624Z,510.00
2023-06-24T06:14:50.612Z,510.00
2023-06-24T06:15:50.598Z,509.00
2023-06-24T06:16:50.595Z,509.00
2023-06-24T06:17:50.644Z,510.00
2023-06-24T06:18:50.578Z,510.00
2023-06-24T06:19:52.513Z,510.00
2023-06-24T06:20:50.590Z,512.00
2023-06-24T06:21:50.558Z,512.00
2023-06-24T06:22:50.542Z,512.00
2023-06-24T06:23:50.529Z,513.00
2023-06-24T06:24:50.547Z,514.00
2023-06-24T06:25:50.522Z,516.00
2023-06-24T06:26:50.509Z,514.00
2023-06-24T06:27:50.505Z,512.00
2023-06-24T06:28:50.499Z,514.00
2023-06-24T06:29:50.493Z,513.00
2023-06-24T06:30:50.483Z,513.00
2023-06-24T06:31:50.494Z,512.00
2023-06-24T06:32:50.471Z,513.00
2023-06-24T06:33:50.478Z,512.00
2023-06-24T06:34:50.454Z,510.00
2023-06-24T06:35:50.456Z,506.00
2023-06-24T06:36:50.472Z,507.00
2023-06-24T06:37:50.444Z,509.00
2023-06-24T06:38:50.433Z,510.00
2023-06-24T06:39:50.419Z,510.00
2023-06-24T06:40:50.420Z,509.00
2023-06-24T06:41:50.413Z,511.00
2023-06-24T06:42:50.421Z,510.00
2023-06-24T06:43:50.399Z,511.00
2023-06-24T06:44:50.395Z,510.00
2023-06-24T06:45:50.444Z,511.00
2023-06-24T06:46:50.381Z,510.00
2023-06-24T06:47:50.405Z,510.00
2023-06-24T06:48:50.365Z,509.00
2023-06-24T06:49:50.351Z,508.00
2023-06-24T06:50:50.346Z,508.00
2023-06-24T06:51:50.344Z,509.00
2023-06-24T06:52:50.380Z,510.00
2023-06-24T06:53:50.328Z,510.00
2023-06-24T06:54:50.321Z,510.00
2023-06-24T06:55:50.311Z,508.00
2023-06-24T06:56:50.323Z,505.00
2023-06-24T06:57:50.301Z,503.00
2023-06-24T06:58:50.313Z,502.00
2023-06-24T06:59:50.277Z,500.00
2023-06-24T07:00:50.276Z,500.00
2023-06-24T07:01:50.431Z,501.00
2023-06-24T07:02:50.333Z,501.00
2023-06-24T07:03:50.326Z,501.00
2023-06-24T07:04:50.261Z,502.00
2023-06-24T07:05:50.250Z,500.00
2023-06-24T07:06:50.261Z,502.00
2023-06-24T07:07:50.235Z,500.00
2023-06-24T07:08:50.240Z,498.00
2023-06-24T07:09:50.211Z,499.00
2023-06-24T07:10:50.205Z,499.00
2023-06-24T07:11:50.206Z,499.00
2023-06-24T07:12:50.184Z,498.00
2023-06-24T07:13:50.194Z,499.00
2023-06-24T07:14:50.172Z,499.00
2023-06-24T07:15:50.165Z,498.00
2023-06-24T07:16:50.161Z,497.00
2023-06-24T07:17:50.177Z,498.00
2023-06-24T07:18:50.143Z,498.00
2023-06-24T07:19:50.153Z,498.00
2023-06-24T07:20:50.142Z,499.00
2023-06-24T07:21:50.119Z,503.00
2023-06-24T07:22:50.138Z,502.00
2023-06-24T07:23:50.132Z,500.00
2023-06-24T07:24:50.183Z,502.00
2023-06-24T07:25:50.113Z,501.00
2023-06-24T07:26:50.108Z,502.00
2023-06-24T07:27:50.081Z,502.00
2023-06-24T07:28:56.881Z,503.00
2023-06-24T07:29:50.072Z,502.00
2023-06-24T07:30:50.061Z,505.00
2023-06-24T07:31:50.056Z,507.00
2023-06-24T07:32:50.113Z,505.00
2023-06-24T07:33:50.049Z,503.00
2023-06-24T07:34:50.032Z,500.00
2023-06-24T07:35:50.032Z,499.00
2023-06-24T07:36:50.020Z,499.00
2023-06-24T07:37:50.034Z,499.00
2023-06-24T07:38:50.019Z,502.00
2023-06-24T07:39:50.001Z,505.00
2023-06-24T07:40:50.029Z,507.00
2023-06-24T07:41:49.985Z,507.00
2023-06-24T07:42:49.974Z,509.00
2023-06-24T07:43:49.968Z,511.00
2023-06-24T07:44:49.980Z,510.00
2023-06-24T07:45:49.965Z,510.00
2023-06-24T07:46:50.021Z,510.00
2023-06-24T07:47:49.985Z,508.00
2023-06-24T07:48:49.949Z,508.00
2023-06-24T07:49:49.997Z,508.00
2023-06-24T07:50:49.918Z,509.00
2023-06-24T07:51:49.922Z,509.00
2023-06-24T07:52:49.911Z,507.00
2023-06-24T07:53:49.952Z,506.00
2023-06-24T07:54:50.852Z,506.00
2023-06-24T07:55:49.886Z,508.00
2023-06-24T07:56:49.908Z,507.00
2023-06-24T07:57:49.867Z,505.00
2023-06-24T07:58:49.854Z,502.00
2023-06-24T07:59:49.851Z,500.00
2023-06-24T08:00:49.870Z,498.00
2023-06-24T08:01:49.842Z,498.00
2023-06-24T08:02:49.993Z,497.00
2023-06-24T08:03:50.000Z,497.00
2023-06-24T08:04:50.076Z,498.00
2023-06-24T08:05:49.962Z,497.00
2023-06-24T08:06:49.916Z,495.00
2023-06-24T08:07:49.812Z,497.00
2023-06-24T08:08:49.789Z,496.00
2023-06-24T08:09:49.780Z,497.00
2023-06-24T08:10:49.788Z,501.00
2023-06-24T08:11:49.765Z,499.00
2023-06-24T08:12:49.815Z,496.00
2023-06-24T08:13:50.354Z,494.00
2023-06-24T08:14:49.752Z,495.00
2023-06-24T08:15:49.770Z,494.00
2023-06-24T08:16:49.791Z,496.00
2023-06-24T08:17:49.919Z,495.00
2023-06-24T08:18:49.846Z,496.00
2023-06-24T08:19:49.870Z,494.00
2023-06-24T08:20:49.908Z,493.00
2023-06-24T08:21:50.862Z,494.00
2023-06-24T08:22:49.994Z,495.00
2023-06-24T08:23:50.027Z,496.00
2023-06-24T08:24:50.067Z,497.00
2023-06-24T08:25:51.523Z,499.00
2023-06-24T08:26:50.105Z,500.00
2023-06-24T08:27:50.094Z,499.00
2023-06-24T08:28:50.121Z,500.00
2023-06-24T08:29:50.089Z,500.00
2023-06-24T08:30:50.122Z,499.00
2023-06-24T08:31:50.069Z,500.00
2023-06-24T08:32:50.188Z,500.00
2023-06-24T08:33:50.053Z,499.00
2023-06-24T08:34:50.060Z,500.00
2023-06-24T08:35:50.042Z,502.00
2023-06-24T08:36:50.028Z,499.00
2023-06-24T08:37:50.030Z,501.00
2023-06-24T08:38:50.017Z,503.00
2023-06-24T08:39:50.010Z,500.00
2023-06-24T08:40:50.000Z,499.00
2023-06-24T08:41:50.000Z,501.00
2023-06-24T08:42:49.980Z,501.00
2023-06-24T08:43:49.976Z,499.00
2023-06-24T08:44:49.994Z,500.00
2023-06-24T08:45:49.962Z,500.00
2023-06-24T08:46:50.875Z,498.00
2023-06-24T08:47:50.537Z,498.00
2023-06-24T08:48:50.354Z,496.00
2023-06-24T08:49:50.115Z,493.00
2023-06-24T08:50:50.160Z,491.00
2023-06-24T08:51:50.224Z,489.00
2023-06-24T08:52:50.296Z,489.00
2023-06-24T08:53:50.346Z,487.00
2023-06-24T08:54:50.416Z,488.00
2023-06-24T08:55:50.449Z,488.00
2023-06-24T08:56:50.510Z,489.00
2023-06-24T08:57:50.565Z,489.00
2023-06-24T08:58:50.634Z,488.00
2023-06-24T08:59:50.683Z,489.00
2023-06-24T09:00:50.784Z,491.00
2023-06-24T09:01:50.885Z,490.00
2023-06-24T09:02:50.886Z,491.00
2023-06-24T09:03:50.948Z,490.00
2023-06-24T09:04:50.968Z,491.00
2023-06-24T09:05:51.241Z,490.00
2023-06-24T09:06:51.133Z,488.00
2023-06-24T09:07:51.153Z,487.00
2023-06-24T09:08:51.201Z,485.00
2023-06-24T09:09:51.343Z,486.00
2023-06-24T09:10:51.320Z,488.00
2023-06-24T09:11:51.371Z,490.00
2023-06-24T09:12:51.431Z,489.00
2023-06-24T09:13:52.382Z,490.00
2023-06-24T09:14:51.536Z,491.00
2023-06-24T09:15:51.598Z,492.00
2023-06-24T09:16:51.680Z,489.00
2023-06-24T09:17:51.741Z,489.00
2023-06-24T09:18:51.761Z,488.00
2023-06-24T09:19:51.809Z,487.00
2023-06-24T09:20:51.861Z,488.00
2023-06-24T09:21:51.932Z,487.00
2023-06-24T09:22:51.988Z,486.00
2023-06-24T09:23:52.037Z,487.00
2023-06-24T09:24:52.100Z,489.00
2023-06-24T09:25:52.146Z,491.00
2023-06-24T09:26:52.217Z,493.00
2023-06-24T09:27:52.244Z,496.00
2023-06-24T09:28:52.293Z,495.00
2023-06-24T09:29:52.340Z,497.00
2023-06-24T09:30:52.392Z,497.00
2023-06-24T09:31:52.482Z,496.00
2023-06-24T09:32:52.552Z,494.00
2023-06-24T09:33:52.571Z,494.00
2023-06-24T09:34:52.590Z,494.00
2023-06-24T09:35:52.640Z,490.00
2023-06-24T09:36:52.688Z,492.00
2023-06-24T09:37:52.904Z,494.00
2023-06-24T09:38:52.791Z,491.00
2023-06-24T09:39:52.835Z,490.00
2023-06-24T09:40:58.884Z,492.00
2023-06-24T09:41:52.875Z,490.00
2023-06-24T09:42:52.860Z,491.00
2023-06-24T09:43:52.855Z,492.00
2023-06-24T09:44:52.847Z,491.00
2023-06-24T09:45:52.882Z,489.00
2023-06-24T09:46:52.832Z,486.00
2023-06-24T09:47:52.920Z,486.00
2023-06-24T09:48:52.836Z,485.00
2023-06-24T09:49:52.803Z,483.00
2023-06-24T09:50:53.391Z,481.00
2023-06-24T09:51:52.792Z,484.00
2023-06-24T09:52:52.815Z,484.00
2023-06-24T09:53:52.779Z,484.00
2023-06-24T09:54:52.765Z,483.00
2023-06-24T09:55:55.392Z,483.00
2023-06-24T09:56:52.752Z,482.00
2023-06-24T09:57:52.750Z,482.00
2023-06-24T09:58:52.737Z,483.00
2023-06-24T09:59:52.739Z,482.00
2023-06-24T10:00:52.721Z,480.00
2023-06-24T10:01:52.725Z,479.00
2023-06-24T10:02:52.815Z,480.00
2023-06-24T10:03:52.831Z,479.00
2023-06-24T10:04:53.422Z,481.00
2023-06-24T10:05:52.687Z,484.00
2023-06-24T10:06:52.733Z,486.00
2023-06-24T10:07:52.681Z,484.00
2023-06-24T10:08:52.675Z,482.00
2023-06-24T10:09:52.669Z,478.00
2023-06-24T10:10:53.403Z,476.00
2023-06-24T10:11:52.661Z,481.00
2023-06-24T10:12:52.658Z,481.00
2023-06-24T10:13:52.641Z,485.00
2023-06-24T10:14:52.627Z,487.00
2023-06-24T10:15:52.630Z,488.00
2023-06-24T10:16:52.626Z,491.00
2023-06-24T10:17:58.274Z,491.00
2023-06-24T10:18:52.604Z,489.00
2023-06-24T10:19:53.405Z,490.00
2023-06-24T10:20:52.616Z,491.00
2023-06-24T10:21:52.605Z,490.00
2023-06-24T10:22:52.595Z,490.00
2023-06-24T10:23:52.571Z,489.00
2023-06-24T10:24:52.576Z,488.00
2023-06-24T10:25:52.555Z,487.00
2023-06-24T10:26:52.547Z,485.00
2023-06-24T10:27:52.542Z,484.00
2023-06-24T10:28:52.532Z,484.00
2023-06-24T10:29:52.540Z,485.00
2023-06-24T10:30:52.555Z,485.00
2023-06-24T10:31:52.523Z,485.00
2023-06-24T10:32:52.525Z,487.00
2023-06-24T10:33:52.501Z,487.00
2023-06-24T10:34:52.501Z,486.00
2023-06-24T10:35:52.490Z,486.00
2023-06-24T10:36:52.505Z,486.00
2023-06-24T10:37:52.486Z,484.00
2023-06-24T10:38:52.468Z,483.00
2023-06-24T10:39:52.474Z,483.00
2023-06-24T10:40:52.454Z,483.00
2023-06-24T10:41:52.446Z,481.00
2023-06-24T10:42:52.443Z,484.00
2023-06-24T10:43:52.927Z,481.00
2023-06-24T10:44:52.475Z,480.00
2023-06-24T10:45:52.457Z,479.00
2023-06-24T10:46:53.431Z,479.00
2023-06-24T10:47:52.556Z,479.00
2023-06-24T10:48:52.513Z,481.00
2023-06-24T10:49:52.531Z,481.00
2023-06-24T10:50:52.555Z,483.00
2023-06-24T10:51:52.925Z,482.00
2023-06-24T10:52:52.633Z,483.00
2023-06-24T10:53:52.645Z,481.00
2023-06-24T10:54:52.665Z,479.00
2023-06-24T10:55:52.674Z,481.00
2023-06-24T10:56:52.730Z,479.00
2023-06-24T10:57:52.923Z,481.00
2023-06-24T10:58:52.739Z,481.00
2023-06-24T10:59:53.426Z,482.00
2023-06-24T11:00:52.831Z,483.00
2023-06-24T11:01:52.873Z,482.00
2023-06-24T11:02:52.920Z,479.00
2023-06-24T11:03:52.847Z,479.00
2023-06-24T11:04:52.877Z,479.00
2023-06-24T11:05:55.432Z,478.00
2023-06-24T11:06:52.958Z,478.00
2023-06-24T11:07:52.882Z,476.00
2023-06-24T11:08:52.895Z,475.00
2023-06-24T11:09:52.863Z,474.00
2023-06-24T11:10:52.856Z,475.00
2023-06-24T11:11:52.846Z,476.00
2023-06-24T11:12:52.844Z,478.00
2023-06-24T11:13:52.847Z,477.00
2023-06-24T11:14:55.422Z,475.00
2023-06-24T11:15:53.423Z,475.00
2023-06-24T11:16:53.477Z,474.00
2023-06-24T11:17:52.842Z,471.00
2023-06-24T11:18:52.804Z,471.00
2023-06-24T11:19:52.794Z,471.00
2023-06-24T11:20:52.789Z,471.00
2023-06-24T11:21:52.797Z,472.00
2023-06-24T11:22:52.767Z,474.00
2023-06-24T11:23:52.756Z,476.00
2023-06-24T11:24:52.777Z,474.00
2023-06-24T11:25:52.739Z,475.00
2023-06-24T11:26:52.780Z,474.00
2023-06-24T11:27:52.733Z,473.00
2023-06-24T11:28:52.739Z,474.00
2023-06-24T11:29:52.715Z,475.00
2023-06-24T11:30:52.764Z,475.00
2023-06-24T11:31:52.939Z,473.00
2023-06-24T11:32:52.794Z,472.00
2023-06-24T11:33:52.693Z,473.00
2023-06-24T11:34:52.674Z,471.00
2023-06-24T11:35:52.671Z,471.00
2023-06-24T11:36:52.682Z,474.00
2023-06-24T11:37:52.653Z,476.00
2023-06-24T11:38:52.665Z,479.00
2023-06-24T11:39:53.436Z,480.00
2023-06-24T11:40:55.463Z,480.00
2023-06-24T11:41:52.665Z,479.00
2023-06-24T11:42:52.648Z,478.00
2023-06-24T11:43:52.635Z,477.00
2023-06-24T11:44:52.626Z,477.00
2023-06-24T11:45:52.614Z,477.00
2023-06-24T11:46:53.444Z,477.00
2023-06-24T11:47:52.627Z,474.00
2023-06-24T11:48:53.532Z,474.00
2023-06-24T11:49:52.572Z,474.00
2023-06-24T11:50:52.578Z,475.00
2023-06-24T11:51:52.568Z,471.00
2023-06-24T11:52:52.555Z,472.00
2023-06-24T11:53:52.552Z,472.00
2023-06-24T11:54:52.531Z,472.00
2023-06-24T11:55:52.527Z,469.00
2023-06-24T11:56:52.548Z,468.00
2023-06-24T11:57:52.543Z,467.00
2023-06-24T11:58:52.506Z,470.00
2023-06-24T11:59:52.504Z,473.00
2023-06-24T12:00:52.495Z,475.00
2023-06-24T12:01:52.524Z,474.00
2023-06-24T12:02:52.553Z,474.00
2023-06-24T12:03:52.658Z,475.00
2023-06-24T12:04:52.565Z,475.00
2023-06-24T12:05:55.454Z,476.00
2023-06-24T12:06:52.492Z,475.00
2023-06-24T12:07:52.443Z,474.00
2023-06-24T12:08:52.626Z,472.00
2023-06-24T12:09:52.436Z,473.00
2023-06-24T12:10:52.443Z,472.00
2023-06-24T12:11:52.429Z,471.00
2023-06-24T12:12:52.460Z,473.00
2023-06-24T12:13:52.411Z,474.00
2023-06-24T12:14:52.403Z,473.00
2023-06-24T12:15:52.953Z,473.00
2023-06-24T12:16:52.422Z,473.00
2023-06-24T12:17:52.434Z,473.00
2023-06-24T12:18:52.377Z,472.00
2023-06-24T12:19:52.373Z,475.00
2023-06-24T12:20:52.956Z,473.00
2023-06-24T12:21:52.381Z,474.00
2023-06-24T12:22:52.956Z,472.00
2023-06-24T12:23:52.957Z,473.00
2023-06-24T12:24:52.338Z,471.00
2023-06-24T12:25:52.334Z,470.00
2023-06-24T12:26:52.323Z,470.00
2023-06-24T12:27:52.378Z,470.00
2023-06-24T12:28:52.337Z,469.00